Time;durP1;ratioP1;P1;durP2;ratioP2;P2;SDS_P1;SDS_P2;PMS_P1;PMS_P2;Temp;Humidity;BMP_temperature;BMP_pressure;BME280_temperature;BME280_humidity;BME280_pressure;Samples;Min_cycle;Max_cycle;Signal;HPM_P1;HPM_P2
2021/04/07 00:01:55;;;;;;;6.20;3.60;;;0.40;99.90;;;;;;4930356;29;20202;-82
2021/04/07 00:04:29;;;;;;;7.32;3.95;;;0.60;99.90;;;;;;4920156;29;20287;-81
2021/04/07 00:06:58;;;;;;;5.55;3.65;;;1.00;99.90;;;;;;4934282;29;20188;-81
2021/04/07 00:09:29;;;;;;;8.02;3.95;;;0.90;99.90;;;;;;4936409;29;20196;-81
2021/04/07 00:12:00;;;;;;;7.88;4.18;;;0.80;99.90;;;;;;4936912;29;20201;-81
2021/04/07 00:14:33;;;;;;;9.50;4.47;;;0.90;99.90;;;;;;4930021;29;20202;-81
2021/04/07 00:17:01;;;;;;;12.13;5.13;;;0.60;99.90;;;;;;4936822;29;20191;-81
2021/04/07 00:19:34;;;;;;;11.25;5.85;;;1.00;99.90;;;;;;4918085;29;20197;-81
2021/04/07 00:22:03;;;;;;;6.78;4.60;;;1.00;99.90;;;;;;4936697;29;20256;-81
2021/04/07 00:24:31;;;;;;;8.52;4.95;;;0.90;99.90;;;;;;4927773;29;20278;-81
2021/04/07 00:27:07;;;;;;;8.23;4.90;;;1.00;99.90;;;;;;4933582;29;20200;-81
2021/04/07 00:29:42;;;;;;;13.70;4.88;;;0.80;99.90;;;;;;4920734;29;20246;-81
2021/04/07 00:32:10;;;;;;;9.27;5.32;;;1.00;99.90;;;;;;4925028;29;20581;-81
2021/04/07 00:34:36;;;;;;;11.43;5.73;;;0.80;99.90;;;;;;4937313;29;20344;-82
2021/04/07 00:37:05;;;;;;;12.07;5.50;;;0.90;99.90;;;;;;4916886;29;20822;-82
2021/04/07 00:39:36;;;;;;;11.37;5.53;;;0.40;99.90;;;;;;4923472;29;20202;-83
2021/04/07 00:42:07;;;;;;;11.13;5.30;;;0.90;99.90;;;;;;4935304;29;20764;-83
2021/04/07 00:44:40;;;;;;;12.55;6.53;;;0.80;99.90;;;;;;4936867;29;20196;-83
2021/04/07 00:47:10;;;;;;;10.13;5.93;;;0.90;99.90;;;;;;4921023;29;20181;-83
2021/04/07 00:49:36;;;;;;;14.15;5.53;;;0.50;99.90;;;;;;4933776;29;20264;-82
2021/04/07 00:52:02;;;;;;;7.82;5.50;;;0.50;99.90;;;;;;4929202;29;20570;-83
2021/04/07 00:54:28;;;;;;;9.45;6.50;;;0.70;99.90;;;;;;4920251;29;20208;-83
2021/04/07 00:57:01;;;;;;;9.10;5.30;;;0.80;99.90;;;;;;4921070;29;20793;-83
2021/04/07 00:59:30;;;;;;;8.38;5.93;;;0.90;99.90;;;;;;4933968;29;20205;-81
2021/04/07 01:01:56;;;;;;;12.88;6.70;;;0.50;99.90;;;;;;4936640;29;20209;-82
2021/04/07 01:04:25;;;;;;;11.35;6.60;;;0.90;99.90;;;;;;4903229;29;20193;-83
2021/04/07 01:06:55;;;;;;;8.88;6.25;;;0.80;99.90;;;;;;4935544;29;20650;-82
2021/04/07 01:09:24;;;;;;;12.02;7.00;;;0.70;99.90;;;;;;4917670;29;20187;-83
2021/04/07 01:11:53;;;;;;;12.93;6.47;;;0.50;99.90;;;;;;4943861;29;20309;-83
2021/04/07 01:14:19;;;;;;;18.08;5.72;;;1.00;99.90;;;;;;4928623;29;20185;-84
2021/04/07 01:16:50;;;;;;;11.30;6.40;;;0.90;99.90;;;;;;4900888;29;20197;-82
2021/04/07 01:19:21;;;;;;;11.05;6.55;;;0.50;99.90;;;;;;4935625;29;20201;-82
2021/04/07 01:21:56;;;;;;;11.75;6.35;;;1.00;99.90;;;;;;4932105;29;20220;-81
2021/04/07 01:24:30;;;;;;;8.48;5.63;;;0.70;99.90;;;;;;4936451;29;20294;-83
2021/04/07 01:26:59;;;;;;;11.00;5.25;;;0.70;99.90;;;;;;4930502;29;20191;-83
2021/04/07 01:29:25;;;;;;;10.05;5.55;;;0.70;99.90;;;;;;4918465;29;20684;-82
2021/04/07 01:31:58;;;;;;;9.32;5.93;;;1.20;99.90;;;;;;4906900;29;20278;-83
2021/04/07 01:34:32;;;;;;;7.78;5.25;;;1.20;99.90;;;;;;4935112;29;20692;-83
2021/04/07 01:37:01;;;;;;;12.15;5.13;;;1.00;99.90;;;;;;4944725;29;20291;-83
2021/04/07 01:39:30;;;;;;;7.22;4.40;;;1.10;99.90;;;;;;4935397;29;20179;-83
2021/04/07 01:41:56;;;;;;;9.48;4.20;;;1.20;99.90;;;;;;4903874;29;20186;-83
2021/04/07 01:44:28;;;;;;;8.48;4.30;;;1.30;99.90;;;;;;4921191;29;20178;-83
2021/04/07 01:47:00;;;;;;;14.32;4.65;;;1.20;99.90;;;;;;4935130;29;20289;-83
2021/04/07 01:49:37;;;;;;;9.63;4.93;;;1.30;99.90;;;;;;4934197;29;20273;-83
2021/04/07 01:52:06;;;;;;;8.45;4.10;;;1.20;99.90;;;;;;4934888;29;20210;-83
2021/04/07 01:54:35;;;;;;;8.68;4.20;;;1.30;99.90;;;;;;4919438;29;20280;-83
2021/04/07 01:57:04;;;;;;;7.90;3.88;;;1.20;99.90;;;;;;4939038;29;20202;-83
2021/04/07 01:59:36;;;;;;;7.53;3.25;;;1.50;99.90;;;;;;4919505;29;20201;-83
2021/04/07 02:02:03;;;;;;;9.70;3.35;;;1.10;99.90;;;;;;4919100;29;20195;-82
2021/04/07 02:04:36;;;;;;;8.82;4.50;;;1.50;99.90;;;;;;4909929;29;20183;-82
2021/04/07 02:07:15;;;;;;;5.20;3.40;;;0.80;99.90;;;;;;4918399;29;20733;-83
2021/04/07 02:09:44;;;;;;;6.80;3.70;;;1.20;99.90;;;;;;4920591;29;20237;-82
2021/04/07 02:12:13;;;;;;;9.88;3.40;;;1.30;99.90;;;;;;4919156;29;20190;-83
2021/04/07 02:14:44;;;;;;;8.00;3.60;;;1.30;99.90;;;;;;4918708;29;20241;-83
2021/04/07 02:17:15;;;;;;;10.52;4.28;;;1.00;99.90;;;;;;4901556;29;20217;-82
2021/04/07 02:19:43;;;;;;;6.22;3.95;;;0.60;99.90;;;;;;4919162;29;20208;-82
2021/04/07 02:22:16;;;;;;;10.50;4.72;;;1.30;99.90;;;;;;4935155;29;20230;-82
2021/04/07 02:24:52;;;;;;;9.25;4.50;;;1.30;99.90;;;;;;4933654;29;20178;-81
2021/04/07 02:27:23;;;;;;;7.30;4.00;;;0.90;99.90;;;;;;4933699;29;20208;-82
2021/04/07 02:29:56;;;;;;;10.32;5.47;;;0.90;99.90;;;;;;4940701;29;20265;-83
2021/04/07 02:32:29;;;;;;;8.20;5.00;;;1.30;99.90;;;;;;4936293;29;20182;-82
2021/04/07 02:34:58;;;;;;;10.18;5.32;;;1.20;99.90;;;;;;4936523;29;20599;-82
2021/04/07 02:37:24;;;;;;;8.05;4.60;;;1.40;99.90;;;;;;4934575;29;20205;-83
2021/04/07 02:39:53;;;;;;;6.85;5.35;;;0.70;99.90;;;;;;4931726;29;20245;-82
2021/04/07 02:42:22;;;;;;;7.57;4.55;;;0.70;99.90;;;;;;4930773;29;20632;-83
2021/04/07 02:44:51;;;;;;;11.57;5.72;;;1.30;99.90;;;;;;4935083;29;20193;-82
2021/04/07 02:47:19;;;;;;;11.55;5.95;;;1.20;99.90;;;;;;4937805;29;20206;-83
2021/04/07 02:49:47;;;;;;;11.15;5.60;;;1.20;99.90;;;;;;4949440;29;20278;-83
2021/04/07 02:52:21;;;;;;;9.70;4.93;;;1.30;99.90;;;;;;4929207;29;20648;-83
2021/04/07 02:54:49;;;;;;;7.28;5.38;;;1.40;99.90;;;;;;4886456;29;20199;-82
2021/04/07 02:57:20;;;;;;;7.97;5.80;;;1.00;99.90;;;;;;4934469;29;20198;-83
2021/04/07 02:59:48;;;;;;;7.38;4.95;;;1.20;99.90;;;;;;4920768;29;20282;-83
2021/04/07 03:02:18;;;;;;;9.95;5.85;;;1.20;99.90;;;;;;4944180;29;20178;-82
2021/04/07 03:04:44;;;;;;;7.03;5.85;;;1.00;99.90;;;;;;4919259;29;20520;-82
2021/04/07 03:07:13;;;;;;;7.50;5.65;;;1.20;99.90;;;;;;4940439;29;20536;-82
2021/04/07 03:09:39;;;;;;;8.50;5.47;;;1.40;99.90;;;;;;4918814;29;20221;-83
2021/04/07 03:12:15;;;;;;;9.32;5.07;;;1.50;99.90;;;;;;4920931;29;20435;-83
2021/04/07 03:14:44;;;;;;;10.10;6.55;;;1.70;99.90;;;;;;4925084;29;20615;-83
2021/04/07 03:17:13;;;;;;;9.65;6.07;;;1.60;99.90;;;;;;4936440;29;20199;-83
2021/04/07 03:19:39;;;;;;;9.43;6.28;;;1.20;99.90;;;;;;4935044;29;20329;-81
2021/04/07 03:22:07;;;;;;;7.75;5.50;;;1.40;99.90;;;;;;4933704;29;20218;-82
2021/04/07 03:24:34;;;;;;;15.07;7.20;;;1.00;99.90;;;;;;4903022;29;20287;-83
2021/04/07 03:27:00;;;;;;;15.05;6.72;;;0.90;99.90;;;;;;4916508;29;20219;-83
2021/04/07 03:29:28;;;;;;;9.95;7.40;;;1.60;99.90;;;;;;4918024;29;20197;-83
2021/04/07 03:31:56;;;;;;;10.70;6.97;;;1.40;99.90;;;;;;4918965;29;20229;-82
2021/04/07 03:34:29;;;;;;;16.02;8.52;;;1.40;99.90;;;;;;4936266;29;20642;-83
2021/04/07 03:36:55;;;;;;;11.45;7.88;;;1.30;99.90;;;;;;4911759;29;20214;-82
2021/04/07 03:39:26;;;;;;;12.77;8.30;;;1.30;99.90;;;;;;4918610;29;20212;-82
2021/04/07 03:42:16;;;;;;;12.48;7.97;;;1.30;99.90;;;;;;4933934;29;20639;-82
2021/04/07 03:44:47;;;;;;;12.75;8.68;;;1.20;99.90;;;;;;4934782;29;20189;-82
2021/04/07 03:47:24;;;;;;;14.35;8.35;;;1.40;99.90;;;;;;4910904;29;20198;-82
2021/04/07 03:49:50;;;;;;;13.93;8.20;;;1.30;99.90;;;;;;4929780;29;20615;-82
2021/04/07 03:52:19;;;;;;;12.95;7.70;;;0.80;99.90;;;;;;4920314;29;20178;-81
2021/04/07 03:54:56;;;;;;;10.60;7.50;;;0.60;99.90;;;;;;4933137;29;20204;-81
2021/04/07 03:57:28;;;;;;;12.68;8.40;;;0.90;99.90;;;;;;4923610;29;20195;-82
2021/04/07 03:59:54;;;;;;;11.63;7.22;;;0.80;99.90;;;;;;4917821;29;20812;-80
2021/04/07 04:02:20;;;;;;;12.30;7.57;;;1.40;99.90;;;;;;4937624;29;20214;-82
2021/04/07 04:04:48;;;;;;;11.40;8.73;;;1.50;99.90;;;;;;4928743;29;20294;-82
2021/04/07 04:07:16;;;;;;;11.68;8.10;;;1.30;99.90;;;;;;4927440;29;20288;-82
2021/04/07 04:09:42;;;;;;;14.80;9.35;;;1.60;99.90;;;;;;4933493;29;20195;-82
2021/04/07 04:12:13;;;;;;;12.10;7.65;;;1.10;99.90;;;;;;4935778;29;20575;-82
2021/04/07 04:14:43;;;;;;;12.38;8.07;;;1.50;99.90;;;;;;4931554;29;20198;-82
2021/04/07 04:17:11;;;;;;;14.77;7.63;;;1.10;99.90;;;;;;4937781;29;20658;-82
2021/04/07 04:19:39;;;;;;;13.82;7.50;;;1.50;99.90;;;;;;4915600;29;20217;-82
2021/04/07 04:22:10;;;;;;;11.52;7.82;;;1.60;99.90;;;;;;4937216;29;20220;-82
2021/04/07 04:24:42;;;;;;;13.05;7.65;;;1.60;99.90;;;;;;4920861;29;20195;-82
2021/04/07 04:27:08;;;;;;;13.15;7.65;;;1.60;99.90;;;;;;4937259;29;20182;-82
2021/04/07 04:29:42;;;;;;;13.63;8.32;;;1.40;99.90;;;;;;4930231;29;20282;-82
2021/04/07 04:32:12;;;;;;;14.70;8.20;;;1.60;99.90;;;;;;4934197;29;20203;-82
2021/04/07 04:34:43;;;;;;;13.82;8.80;;;1.40;99.90;;;;;;4937564;29;20192;-82
2021/04/07 04:37:14;;;;;;;14.27;9.13;;;1.30;99.90;;;;;;4952168;29;20195;-81
2021/04/07 04:39:48;;;;;;;15.52;7.80;;;1.40;99.90;;;;;;4919595;29;20222;-82
2021/04/07 04:42:16;;;;;;;14.77;8.43;;;1.40;99.90;;;;;;4941216;29;20544;-81
2021/04/07 04:44:43;;;;;;;16.60;7.75;;;1.20;99.90;;;;;;4912028;29;20285;-82
2021/04/07 04:47:13;;;;;;;14.60;8.70;;;1.40;99.90;;;;;;4917892;29;20609;-82
2021/04/07 04:49:44;;;;;;;13.18;8.57;;;1.10;99.90;;;;;;4934307;29;20651;-82
2021/04/07 04:52:12;;;;;;;11.85;7.03;;;1.20;99.90;;;;;;4929059;29;20279;-82
2021/04/07 04:54:43;;;;;;;15.73;8.27;;;1.60;99.90;;;;;;4931574;29;20198;-82
2021/04/07 04:57:11;;;;;;;17.35;9.05;;;1.50;99.90;;;;;;4912851;29;20250;-82
2021/04/07 04:59:48;;;;;;;12.90;8.05;;;1.50;99.90;;;;;;4940898;29;20194;-82
2021/04/07 05:02:19;;;;;;;20.00;10.57;;;1.60;99.90;;;;;;4912905;29;20198;-82
2021/04/07 05:04:50;;;;;;;16.02;10.15;;;1.00;99.90;;;;;;4937021;29;20315;-82
2021/04/07 05:07:20;;;;;;;17.35;10.65;;;0.80;99.90;;;;;;4935921;29;20205;-83
2021/04/07 05:09:51;;;;;;;16.05;11.10;;;1.30;99.90;;;;;;4920264;29;20524;-83
2021/04/07 05:12:17;;;;;;;15.50;8.93;;;1.40;99.90;;;;;;4936975;29;20213;-82
2021/04/07 05:14:50;;;;;;;15.55;9.93;;;1.30;99.90;;;;;;4920608;29;20617;-83
2021/04/07 05:17:21;;;;;;;19.45;11.05;;;1.40;99.90;;;;;;4935256;29;20657;-82
2021/04/07 05:19:54;;;;;;;15.23;10.02;;;0.80;99.90;;;;;;4929453;29;20306;-81
2021/04/07 05:22:22;;;;;;;15.32;9.50;;;1.20;99.90;;;;;;4942933;29;20240;-82
2021/04/07 05:24:50;;;;;;;20.77;10.80;;;1.40;99.90;;;;;;4925610;29;20190;-82
2021/04/07 05:27:21;;;;;;;19.55;10.63;;;1.40;99.90;;;;;;4934603;29;20198;-82
2021/04/07 05:29:53;;;;;;;23.05;12.52;;;1.50;99.90;;;;;;4936632;29;20200;-82
2021/04/07 05:32:24;;;;;;;26.52;14.25;;;1.00;99.90;;;;;;4936605;29;20636;-82
2021/04/07 05:34:54;;;;;;;29.83;14.23;;;0.90;99.90;;;;;;4920720;29;20181;-82
2021/04/07 05:37:25;;;;;;;25.38;13.15;;;1.10;99.90;;;;;;4929367;29;20198;-82
2021/04/07 05:39:51;;;;;;;22.80;13.17;;;0.80;99.90;;;;;;4931256;29;20197;-82
2021/04/07 05:42:24;;;;;;;23.80;14.80;;;1.50;99.90;;;;;;4935702;29;20515;-82
2021/04/07 05:44:55;;;;;;;24.58;12.52;;;1.20;99.90;;;;;;4930265;29;20209;-82
2021/04/07 05:47:28;;;;;;;22.90;15.05;;;1.10;99.90;;;;;;4916987;29;20237;-83
2021/04/07 05:49:56;;;;;;;20.27;12.88;;;1.40;99.90;;;;;;4919300;29;20195;-82
2021/04/07 05:52:24;;;;;;;20.77;12.37;;;1.20;99.90;;;;;;4911789;29;20202;-83
2021/04/07 05:54:52;;;;;;;20.92;12.70;;;0.80;99.90;;;;;;4929804;29;20480;-82
2021/04/07 05:57:21;;;;;;;22.00;11.77;;;1.40;99.90;;;;;;4927676;29;20188;-83
2021/04/07 05:59:51;;;;;;;21.35;11.20;;;1.50;99.90;;;;;;4920117;29;20271;-83
2021/04/07 06:02:24;;;;;;;19.73;12.52;;;1.50;99.90;;;;;;4934703;29;20229;-82
2021/04/07 06:04:55;;;;;;;19.33;12.70;;;1.20;99.90;;;;;;4935920;29;20310;-82
2021/04/07 06:07:27;;;;;;;18.60;11.60;;;1.30;99.90;;;;;;4935850;29;20200;-84
2021/04/07 06:09:58;;;;;;;20.50;11.88;;;1.00;99.90;;;;;;4937865;29;20190;-84
2021/04/07 06:12:31;;;;;;;20.85;12.07;;;1.30;99.90;;;;;;4921872;29;20185;-80
2021/04/07 06:15:04;;;;;;;19.08;11.35;;;1.20;99.90;;;;;;4902671;29;20192;-81
2021/04/07 06:17:33;;;;;;;18.95;11.80;;;1.20;99.90;;;;;;4919001;29;20229;-81
2021/04/07 06:19:59;;;;;;;18.25;10.68;;;1.30;99.90;;;;;;4922342;29;20538;-83
2021/04/07 06:22:29;;;;;;;15.45;10.10;;;1.30;99.90;;;;;;4908865;29;20658;-81
2021/04/07 06:25:13;;;;;;;16.83;10.65;;;1.30;99.90;;;;;;4925245;29;20198;-83
2021/04/07 06:27:38;;;;;;;23.13;12.15;;;1.40;99.90;;;;;;4918936;29;20217;-83
2021/04/07 06:30:10;;;;;;;23.00;12.90;;;1.10;99.90;;;;;;4904362;29;20213;-83
2021/04/07 06:32:41;;;;;;;18.13;10.90;;;1.30;99.90;;;;;;4938240;29;20443;-84
2021/04/07 06:35:07;;;;;;;20.73;11.70;;;1.30;99.90;;;;;;4954805;28;20209;-82
2021/04/07 06:37:36;;;;;;;17.95;11.55;;;1.30;99.90;;;;;;4939356;29;20193;-84
2021/04/07 06:40:07;;;;;;;21.00;12.57;;;1.10;99.90;;;;;;4938345;29;20281;-81
2021/04/07 06:42:36;;;;;;;19.92;11.85;;;1.30;99.90;;;;;;4904860;29;20199;-81
2021/04/07 06:45:07;;;;;;;18.92;12.05;;;0.80;99.90;;;;;;4920499;29;20191;-80
2021/04/07 06:47:35;;;;;;;14.48;10.50;;;1.40;99.90;;;;;;4920277;29;20246;-81
2021/04/07 06:50:07;;;;;;;17.17;10.65;;;1.10;99.90;;;;;;4939185;29;20191;-80
2021/04/07 06:52:42;;;;;;;17.42;10.68;;;1.40;99.90;;;;;;4921242;29;20241;-81
2021/04/07 06:55:09;;;;;;;21.77;9.55;;;1.40;99.90;;;;;;4917072;29;20187;-85
2021/04/07 06:57:40;;;;;;;13.95;9.52;;;1.50;99.90;;;;;;4934147;29;20198;-80
2021/04/07 07:00:12;;;;;;;15.50;9.30;;;1.50;99.90;;;;;;4888457;29;20188;-79
2021/04/07 07:02:39;;;;;;;13.23;9.63;;;1.70;99.90;;;;;;4933304;29;20278;-81
2021/04/07 07:05:10;;;;;;;14.52;8.85;;;1.20;99.90;;;;;;4919973;29;20186;-80
2021/04/07 07:07:43;;;;;;;11.15;8.70;;;1.50;99.90;;;;;;4931566;29;20189;-80
2021/04/07 07:10:14;;;;;;;16.23;9.02;;;1.60;99.90;;;;;;4923987;29;20654;-81
2021/04/07 07:12:46;;;;;;;14.25;8.50;;;1.60;99.90;;;;;;4927089;29;20515;-82
2021/04/07 07:15:16;;;;;;;13.88;8.25;;;1.60;99.90;;;;;;4920300;29;20182;-80
2021/04/07 07:17:47;;;;;;;9.60;8.18;;;1.80;99.90;;;;;;4932179;29;20727;-80
2021/04/07 07:20:13;;;;;;;17.63;10.00;;;1.30;99.90;;;;;;4933459;29;20223;-80
2021/04/07 07:22:46;;;;;;;15.57;7.47;;;1.50;99.90;;;;;;4924922;29;20242;-79
2021/04/07 07:25:19;;;;;;;9.10;6.72;;;1.70;99.90;;;;;;4931749;29;20245;-80
2021/04/07 07:28:06;;;;;;;12.13;7.30;;;1.80;99.90;;;;;;4920710;29;20205;-80
2021/04/07 07:30:45;;;;;;;10.73;6.63;;;1.60;99.90;;;;;;4917024;29;20230;-79
2021/04/07 07:33:19;;;;;;;8.02;5.93;;;1.50;99.90;;;;;;4915065;29;20570;-78
2021/04/07 07:35:52;;;;;;;10.77;6.15;;;1.40;99.90;;;;;;4918002;29;20213;-80
2021/04/07 07:38:27;;;;;;;9.73;5.35;;;1.40;99.90;;;;;;4911134;29;20190;-79
2021/04/07 07:41:08;;;;;;;6.45;4.82;;;1.30;99.90;;;;;;4920793;29;20185;-80
2021/04/07 07:43:41;;;;;;;7.75;6.25;;;1.20;99.90;;;;;;4929749;29;20202;-79
2021/04/07 07:46:11;;;;;;;11.10;6.90;;;1.40;99.90;;;;;;4902316;29;20218;-82
2021/04/07 07:48:42;;;;;;;15.40;6.47;;;1.10;99.90;;;;;;4897426;29;20210;-81
2021/04/07 07:51:30;;;;;;;8.75;6.45;;;1.60;99.90;;;;;;4921334;29;20262;-81
2021/04/07 07:54:14;;;;;;;8.60;5.72;;;1.60;99.90;;;;;;4937618;29;20191;-81
2021/04/07 07:56:43;;;;;;;8.48;6.63;;;1.80;99.90;;;;;;4917503;29;20215;-80
2021/04/07 07:59:11;;;;;;;9.13;5.50;;;1.70;99.90;;;;;;4918110;29;20579;-80
2021/04/07 08:01:50;;;;;;;9.57;5.72;;;1.50;99.90;;;;;;4937091;29;20723;-80
2021/04/07 08:04:21;;;;;;;7.00;5.35;;;1.90;99.90;;;;;;4937150;29;20215;-82
2021/04/07 08:06:52;;;;;;;7.13;5.40;;;2.00;99.90;;;;;;4905374;29;20549;-81
2021/04/07 08:09:22;;;;;;;8.18;5.22;;;2.00;99.90;;;;;;4941132;29;20553;-80
2021/04/07 08:11:55;;;;;;;6.75;4.53;;;1.80;99.90;;;;;;4927779;29;20662;-85
2021/04/07 08:14:24;;;;;;;9.35;5.60;;;1.90;99.90;;;;;;4911811;29;20570;-80
2021/04/07 08:16:55;;;;;;;7.15;5.32;;;1.90;99.90;;;;;;4914712;29;20199;-79
2021/04/07 08:19:24;;;;;;;8.85;5.50;;;1.70;99.90;;;;;;4930905;29;20208;-82
2021/04/07 08:21:58;;;;;;;6.50;5.80;;;1.80;99.90;;;;;;4937264;29;20200;-81
2021/04/07 08:24:29;;;;;;;9.05;6.55;;;1.70;99.90;;;;;;4944101;29;20518;-81
2021/04/07 08:27:08;;;;;;;7.85;6.10;;;1.80;99.90;;;;;;4922052;29;20239;-81
2021/04/07 08:29:36;;;;;;;8.65;6.13;;;1.90;99.90;;;;;;4936839;29;20195;-80
2021/04/07 08:32:05;;;;;;;8.88;6.30;;;1.80;99.90;;;;;;4918130;29;20231;-80
2021/04/07 08:34:33;;;;;;;8.43;6.40;;;1.80;99.90;;;;;;4929448;29;20204;-80
2021/04/07 08:36:59;;;;;;;10.13;6.40;;;2.00;99.90;;;;;;4937577;29;20262;-81
2021/04/07 08:39:30;;;;;;;7.75;6.28;;;2.00;99.90;;;;;;4920396;29;20192;-80
2021/04/07 08:41:59;;;;;;;9.20;7.05;;;2.00;99.90;;;;;;4903931;29;20193;-83
2021/04/07 08:44:29;;;;;;;8.23;6.80;;;2.00;99.90;;;;;;4919611;29;20196;-81
2021/04/07 08:46:59;;;;;;;7.15;6.28;;;2.10;99.90;;;;;;4906164;29;20637;-81
2021/04/07 08:49:43;;;;;;;8.27;6.13;;;2.00;99.90;;;;;;4904799;29;20201;-80
2021/04/07 08:52:19;;;;;;;8.02;6.20;;;2.10;99.90;;;;;;4943678;29;20235;-81
2021/04/07 08:54:56;;;;;;;6.47;5.88;;;2.30;99.90;;;;;;4913673;29;20202;-80
2021/04/07 08:57:26;;;;;;;6.93;5.90;;;2.20;99.90;;;;;;4920746;29;20199;-80
2021/04/07 08:59:59;;;;;;;6.85;5.55;;;2.10;99.90;;;;;;4937253;29;20589;-80
2021/04/07 09:02:30;;;;;;;5.95;4.93;;;2.40;99.90;;;;;;4935323;29;20181;-80
2021/04/07 09:05:07;;;;;;;7.03;5.43;;;2.10;99.90;;;;;;4932555;29;20195;-80
2021/04/07 09:07:44;;;;;;;5.93;5.32;;;2.20;99.90;;;;;;4936179;29;20190;-80
2021/04/07 09:10:18;;;;;;;8.32;4.85;;;2.30;99.90;;;;;;4935584;29;20286;-80
2021/04/07 09:12:47;;;;;;;6.40;5.28;;;2.30;99.90;;;;;;4919736;29;20279;-81
2021/04/07 09:15:16;;;;;;;7.38;5.22;;;2.40;99.90;;;;;;4928654;29;20203;-80
2021/04/07 09:17:44;;;;;;;6.72;5.40;;;2.20;99.90;;;;;;4905460;29;20258;-78
2021/04/07 09:20:33;;;;;;;8.80;5.47;;;2.20;99.90;;;;;;4931244;29;20211;-79
2021/04/07 09:23:28;;;;;;;6.10;5.45;;;2.10;99.90;;;;;;4933073;29;20718;-80
2021/04/07 09:26:17;;;;;;;6.28;5.28;;;2.60;99.90;;;;;;4936389;29;20282;-80
2021/04/07 09:28:50;;;;;;;6.53;5.00;;;2.40;99.90;;;;;;4936499;29;20198;-80
2021/04/07 09:31:28;;;;;;;6.15;5.40;;;2.10;99.90;;;;;;4932723;29;20283;-81
2021/04/07 09:33:59;;;;;;;6.07;4.07;;;2.60;99.90;;;;;;4935799;29;20257;-81
2021/04/07 09:36:31;;;;;;;8.77;6.15;;;2.40;99.90;;;;;;4936513;29;20200;-81
2021/04/07 09:39:10;;;;;;;8.10;6.03;;;2.10;99.90;;;;;;4935444;29;20216;-80
2021/04/07 09:41:40;;;;;;;6.88;5.25;;;2.60;99.90;;;;;;4934602;29;20199;-78
2021/04/07 09:44:13;;;;;;;7.90;5.53;;;2.50;99.90;;;;;;4920176;29;20208;-78
2021/04/07 09:46:55;;;;;;;9.63;5.20;;;2.60;99.90;;;;;;4920008;29;20218;-79
2021/04/07 09:49:28;;;;;;;7.05;5.57;;;2.80;99.90;;;;;;4928749;29;20289;-79
2021/04/07 09:51:59;;;;;;;8.27;5.43;;;2.80;99.90;;;;;;4919925;29;20209;-78
2021/04/07 09:54:38;;;;;;;7.30;5.60;;;2.50;99.90;;;;;;4935454;29;20193;-80
2021/04/07 09:57:08;;;;;;;6.97;5.25;;;3.00;99.90;;;;;;4918596;29;20180;-80
2021/04/07 09:59:42;;;;;;;9.10;5.75;;;2.90;99.90;;;;;;4935743;29;20255;-80
2021/04/07 10:02:25;;;;;;;8.13;5.47;;;3.10;99.90;;;;;;4888871;29;20266;-81
2021/04/07 10:04:54;;;;;;;9.80;5.78;;;3.10;99.90;;;;;;4935704;29;20188;-81
2021/04/07 10:07:25;;;;;;;10.15;6.25;;;3.10;99.90;;;;;;4912519;29;20195;-81
2021/04/07 10:10:02;;;;;;;9.88;5.07;;;3.20;99.90;;;;;;4918729;29;20201;-79
2021/04/07 10:12:29;;;;;;;7.40;5.18;;;3.20;99.90;;;;;;4919260;29;20635;-80
2021/04/07 10:15:05;;;;;;;8.82;5.60;;;3.30;99.90;;;;;;4919312;29;20215;-79
2021/04/07 10:17:37;;;;;;;11.80;5.30;;;3.40;99.90;;;;;;4918979;29;20191;-80
2021/04/07 10:20:14;;;;;;;10.65;5.50;;;3.50;99.90;;;;;;4934655;29;20192;-80
2021/04/07 10:22:46;;;;;;;11.05;5.78;;;3.40;99.90;;;;;;4922916;29;20582;-79
2021/04/07 10:25:19;;;;;;;13.77;6.32;;;3.50;99.90;;;;;;4935441;29;20199;-79
2021/04/07 10:27:46;;;;;;;8.95;5.72;;;3.70;99.90;;;;;;4918879;29;20202;-79
2021/04/07 10:30:16;;;;;;;11.57;5.75;;;3.80;99.90;;;;;;4919280;29;20267;-80
2021/04/07 10:32:50;;;;;;;10.93;5.60;;;3.90;99.90;;;;;;4911090;29;20203;-80
2021/04/07 10:35:24;;;;;;;6.90;5.32;;;4.00;99.90;;;;;;4915544;29;20187;-80
2021/04/07 10:37:59;;;;;;;9.73;5.10;;;4.10;99.90;;;;;;4935319;29;20208;-80
2021/04/07 10:40:30;;;;;;;12.27;5.45;;;4.20;99.90;;;;;;4924199;29;20200;-79
2021/04/07 10:42:59;;;;;;;19.52;7.25;;;4.20;99.90;;;;;;4902792;29;20197;-80
2021/04/07 10:45:28;;;;;;;8.68;5.68;;;4.10;99.90;;;;;;4934661;29;20192;-79
2021/04/07 10:48:06;;;;;;;6.70;5.30;;;4.00;99.90;;;;;;4935165;29;20215;-79
2021/04/07 10:50:38;;;;;;;10.88;6.05;;;3.90;99.90;;;;;;4917209;29;20247;-79
2021/04/07 10:53:09;;;;;;;13.38;5.20;;;4.00;99.90;;;;;;4923699;29;20577;-79
2021/04/07 10:55:38;;;;;;;9.82;5.63;;;4.00;99.90;;;;;;4927108;29;20204;-79
2021/04/07 10:58:06;;;;;;;16.35;7.90;;;4.00;99.90;;;;;;4915124;29;20211;-79
2021/04/07 11:00:37;;;;;;;20.58;7.95;;;4.10;99.90;;;;;;4926346;29;20331;-80
2021/04/07 11:03:07;;;;;;;15.25;7.32;;;4.30;99.90;;;;;;4937246;29;20222;-79
2021/04/07 11:05:46;;;;;;;13.05;8.07;;;4.50;99.90;;;;;;4923744;29;20535;-79
2021/04/07 11:08:17;;;;;;;11.00;6.40;;;4.60;99.90;;;;;;4935057;29;20214;-79
2021/04/07 11:10:47;;;;;;;16.20;7.60;;;4.60;99.90;;;;;;4917326;29;20211;-80
2021/04/07 11:13:17;;;;;;;11.68;7.57;;;4.70;99.90;;;;;;4918637;29;20188;-80
2021/04/07 11:15:48;;;;;;;11.35;6.07;;;4.70;99.90;;;;;;4940917;29;20577;-80
2021/04/07 11:18:29;;;;;;;12.52;7.10;;;4.80;99.90;;;;;;4930091;29;20201;-80
2021/04/07 11:20:58;;;;;;;13.50;7.32;;;5.00;99.90;;;;;;4925112;29;20292;-79
2021/04/07 11:23:36;;;;;;;20.88;7.70;;;5.20;99.90;;;;;;4934419;29;20610;-80
2021/04/07 11:26:09;;;;;;;14.43;7.57;;;5.60;99.90;;;;;;4944621;29;20212;-80
2021/04/07 11:28:39;;;;;;;15.77;7.97;;;6.20;99.90;;;;;;4913443;29;20249;-80
2021/04/07 11:31:16;;;;;;;17.40;5.78;;;6.70;99.90;;;;;;4939748;29;20214;-81
2021/04/07 11:33:59;;;;;;;10.68;3.30;;;7.10;99.90;;;;;;4918008;29;20193;-81
2021/04/07 11:36:51;;;;;;;9.70;3.03;;;7.10;99.90;;;;;;4929572;29;20199;-80
2021/04/07 11:44:29;;;;;;;10.57;3.40;;;5.90;99.90;;;;;;4937631;29;20217;-81
2021/04/07 11:47:06;;;;;;;11.40;3.55;;;5.50;99.90;;;;;;4939021;29;20215;-80
2021/04/07 11:49:36;;;;;;;10.85;3.60;;;5.40;99.90;;;;;;4927184;29;20206;-80
2021/04/07 11:52:08;;;;;;;6.90;2.70;;;5.40;99.90;;;;;;4938365;29;20247;-81
2021/04/07 11:54:34;;;;;;;6.05;2.58;;;5.40;99.90;;;;;;4921999;29;20196;-80
2021/04/07 11:57:06;;;;;;;8.73;4.18;;;5.40;99.90;;;;;;4911803;29;20227;-81
2021/04/07 11:59:36;;;;;;;11.32;4.20;;;5.40;99.90;;;;;;4933655;29;20205;-80
2021/04/07 12:02:07;;;;;;;9.02;3.78;;;5.30;99.90;;;;;;4938125;29;20236;-81
2021/04/07 12:04:36;;;;;;;11.75;6.28;;;5.20;99.90;;;;;;4929282;29;20637;-81
2021/04/07 12:07:07;;;;;;;13.85;7.07;;;5.20;99.90;;;;;;4930199;29;20192;-81
2021/04/07 12:09:35;;;;;;;10.98;6.43;;;5.20;99.90;;;;;;4932951;29;20268;-81
2021/04/07 12:12:04;;;;;;;7.72;2.80;;;5.10;99.90;;;;;;4931882;29;20213;-80
2021/04/07 12:14:32;;;;;;;11.00;4.10;;;5.10;99.90;;;;;;4924576;29;20196;-80
2021/04/07 12:16:58;;;;;;;9.82;4.20;;;5.00;99.90;;;;;;4936521;29;20189;-80
2021/04/07 12:19:26;;;;;;;11.63;3.90;;;4.80;99.90;;;;;;4920938;29;20279;-78
2021/04/07 12:21:55;;;;;;;10.60;5.15;;;4.70;99.90;;;;;;4941635;29;20935;-79
2021/04/07 12:24:26;;;;;;;12.25;4.90;;;4.50;99.90;;;;;;4929277;29;20694;-82
2021/04/07 12:27:01;;;;;;;12.43;4.90;;;4.40;99.90;;;;;;4941575;29;20199;-81
2021/04/07 12:29:34;;;;;;;8.77;2.95;;;4.40;99.90;;;;;;4939507;29;20623;-81
2021/04/07 12:32:07;;;;;;;10.10;4.00;;;4.40;99.90;;;;;;4920315;29;20210;-82
2021/04/07 12:34:40;;;;;;;13.75;5.43;;;4.40;99.90;;;;;;4920877;29;20243;-80
2021/04/07 12:37:08;;;;;;;12.73;6.03;;;4.30;99.90;;;;;;4941184;29;20231;-80
2021/04/07 12:39:38;;;;;;;16.00;6.30;;;4.20;99.90;;;;;;4939921;29;20196;-80
2021/04/07 12:42:16;;;;;;;15.48;6.40;;;4.20;99.90;;;;;;4938155;29;20222;-80
2021/04/07 12:44:46;;;;;;;13.05;4.65;;;4.20;99.90;;;;;;4921001;29;20235;-81
2021/04/07 12:47:17;;;;;;;24.90;5.90;;;4.30;99.90;;;;;;4921179;29;20655;-81
2021/04/07 12:49:43;;;;;;;21.38;5.68;;;4.40;99.90;;;;;;4913229;29;20200;-80
2021/04/07 12:52:14;;;;;;;18.50;4.50;;;4.50;99.90;;;;;;4937575;29;20244;-81
2021/04/07 12:57:35;;;;;;;15.35;4.95;;;4.80;99.90;;;;;;4943663;29;20195;-78
2021/04/07 13:00:04;;;;;;;16.52;5.03;;;4.90;99.90;;;;;;4937032;29;20361;-78
2021/04/07 13:02:34;;;;;;;16.85;4.07;;;5.10;99.90;;;;;;4920819;29;20184;-79
2021/04/07 13:05:00;;;;;;;18.67;5.47;;;5.30;99.90;;;;;;4924751;29;20228;-78
2021/04/07 13:07:30;;;;;;;11.75;4.32;;;5.70;99.90;;;;;;4942934;29;20193;-80
2021/04/07 13:09:58;;;;;;;8.77;4.60;;;6.00;99.90;;;;;;4935836;29;20197;-80
2021/04/07 13:12:26;;;;;;;16.25;6.05;;;6.10;99.90;;;;;;4937228;29;20299;-79
2021/04/07 13:14:55;;;;;;;22.40;7.55;;;6.30;99.90;;;;;;4936943;29;20224;-79
2021/04/07 13:17:23;;;;;;;22.45;8.65;;;6.50;99.90;;;;;;4939199;29;20181;-79
2021/04/07 13:19:56;;;;;;;23.63;8.48;;;6.50;99.90;;;;;;4918897;29;20189;-78